createdAt,value
2022-08-17T00:00:43.725Z,90.70
2022-08-17T00:03:05.330Z,90.70
2022-08-17T00:05:39.395Z,90.30
2022-08-17T00:08:08.413Z,90.10
2022-08-17T00:10:36.947Z,90.10
2022-08-17T00:13:14.170Z,90.00
2022-08-17T00:15:41.251Z,90.30
2022-08-17T00:18:57.475Z,90.80
2022-08-17T00:20:56.734Z,91.00
2022-08-17T00:23:26.423Z,91.30
2022-08-17T00:25:54.734Z,91.30
2022-08-17T00:28:21.791Z,91.30
2022-08-17T00:30:53.339Z,91.30
2022-08-17T00:33:25.839Z,91.30
2022-08-17T00:35:55.487Z,91.20
2022-08-17T00:38:24.944Z,91.10
2022-08-17T00:40:55.877Z,91.10
2022-08-17T00:43:37.106Z,90.90
2022-08-17T00:46:08.587Z,90.90
2022-08-17T00:48:36.909Z,91.20
2022-08-17T00:51:13.037Z,91.30
2022-08-17T00:53:45.646Z,91.30
2022-08-17T00:56:24.686Z,90.80
2022-08-17T00:58:54.694Z,90.70
2022-08-17T01:01:23.065Z,90.90
2022-08-17T01:03:52.507Z,91.20
2022-08-17T01:06:21.269Z,90.90
2022-08-17T01:08:57.506Z,90.40
2022-08-17T01:11:29.922Z,90.60
2022-08-17T01:13:57.076Z,91.30
2022-08-17T01:16:28.250Z,91.50
2022-08-17T01:18:59.735Z,91.40
2022-08-17T01:21:36.945Z,91.20
2022-08-17T01:24:06.581Z,91.10
2022-08-17T01:26:35.512Z,91.10
2022-08-17T01:29:05.151Z,91.10
2022-08-17T01:31:37.770Z,91.20
2022-08-17T01:34:15.353Z,90.90
2022-08-17T01:36:45.875Z,90.70
2022-08-17T01:39:31.363Z,90.70
2022-08-17T01:42:06.026Z,91.00
2022-08-17T01:44:33.699Z,91.40
2022-08-17T01:47:00.756Z,91.60
2022-08-17T01:49:28.713Z,91.30
2022-08-17T01:51:56.082Z,91.00
2022-08-17T01:54:25.790Z,91.10
2022-08-17T01:56:53.575Z,90.80
2022-08-17T01:59:23.702Z,90.90
2022-08-17T02:01:50.949Z,90.80
2022-08-17T02:04:18.132Z,90.80
2022-08-17T02:06:54.106Z,91.20
2022-08-17T02:09:25.983Z,91.20
2022-08-17T02:11:54.528Z,91.30
2022-08-17T02:14:23.285Z,91.60
2022-08-17T02:16:50.690Z,91.60
2022-08-17T02:19:18.210Z,91.70
2022-08-17T02:21:47.983Z,91.90
2022-08-17T02:24:59.329Z,91.70
2022-08-17T02:27:08.147Z,91.70
2022-08-17T02:29:35.286Z,91.20
2022-08-17T02:32:02.534Z,91.40
2022-08-17T02:34:30.078Z,91.60
2022-08-17T02:36:57.179Z,91.60
2022-08-17T02:39:24.273Z,91.60
2022-08-17T02:42:01.477Z,91.60
2022-08-17T02:44:38.953Z,91.70
2022-08-17T02:47:08.789Z,91.70
2022-08-17T02:49:36.600Z,91.70
2022-08-17T02:52:06.564Z,91.70
2022-08-17T02:54:40.002Z,91.70
2022-08-17T02:57:11.977Z,91.50
2022-08-17T02:59:48.391Z,91.50
2022-08-17T03:02:16.200Z,91.80
2022-08-17T03:04:43.290Z,91.90
2022-08-17T03:07:10.416Z,91.80
2022-08-17T03:09:37.852Z,91.90
2022-08-17T03:12:12.463Z,92.00
2022-08-17T03:14:42.962Z,91.90
2022-08-17T03:17:10.285Z,91.80
2022-08-17T03:19:42.225Z,92.20
2022-08-17T03:22:35.929Z,92.60
2022-08-17T03:24:58.224Z,92.40
2022-08-17T03:27:25.534Z,92.40
2022-08-17T03:29:56.763Z,92.50
2022-08-17T03:32:23.805Z,92.40
2022-08-17T03:34:50.751Z,93.00
2022-08-17T03:37:17.780Z,92.60
2022-08-17T03:39:44.956Z,92.60
2022-08-17T03:42:32.597Z,92.70
2022-08-17T03:45:10.976Z,92.60
2022-08-17T03:47:56.838Z,92.50
2022-08-17T03:50:42.931Z,92.60
2022-08-17T03:53:33.914Z,92.60
2022-08-17T03:56:21.161Z,92.50
2022-08-17T03:58:48.631Z,92.30
2022-08-17T04:01:17.998Z,92.30
2022-08-17T04:03:45.093Z,92.90
2022-08-17T04:06:12.167Z,93.20
2022-08-17T04:08:39.261Z,93.20
2022-08-17T04:11:06.540Z,93.30
2022-08-17T04:13:33.712Z,93.30
2022-08-17T04:16:00.845Z,93.50
2022-08-17T04:18:29.231Z,93.40
2022-08-17T04:20:56.564Z,93.30
2022-08-17T04:23:32.733Z,93.10
2022-08-17T04:25:59.888Z,93.00
2022-08-17T04:28:26.982Z,93.30
2022-08-17T04:30:54.280Z,93.70
2022-08-17T04:33:24.200Z,93.80
2022-08-17T04:36:01.869Z,93.40
2022-08-17T04:38:32.392Z,93.30
2022-08-17T04:41:19.677Z,93.30
2022-08-17T04:43:48.909Z,93.50
2022-08-17T04:46:18.974Z,93.70
2022-08-17T04:48:49.103Z,93.60
2022-08-17T04:51:21.031Z,93.70
2022-08-17T04:53:54.303Z,93.70
2022-08-17T04:56:23.961Z,93.70
2022-08-17T04:58:54.515Z,93.80
2022-08-17T05:01:24.973Z,93.80
2022-08-17T05:03:53.263Z,93.60
2022-08-17T05:06:22.549Z,93.60
2022-08-17T05:08:49.591Z,93.50
2022-08-17T05:11:16.898Z,93.40
2022-08-17T05:13:49.967Z,93.70
2022-08-17T05:16:25.903Z,93.60
2022-08-17T05:18:53.532Z,93.40
2022-08-17T05:21:23.452Z,93.30
2022-08-17T05:23:56.326Z,93.40
2022-08-17T05:26:27.349Z,93.60
2022-08-17T05:29:00.520Z,94.00
2022-08-17T05:31:31.179Z,94.00
2022-08-17T05:33:58.919Z,94.20
2022-08-17T05:36:41.623Z,94.20
2022-08-17T05:39:16.397Z,94.00
2022-08-17T05:41:47.015Z,93.70
2022-08-17T05:44:14.133Z,93.80
2022-08-17T05:46:43.989Z,93.60
2022-08-17T05:49:12.977Z,93.60
2022-08-17T05:52:03.028Z,93.50
2022-08-17T05:54:59.589Z,93.50
2022-08-17T05:57:53.017Z,93.50
2022-08-17T06:00:26.311Z,93.40
2022-08-17T06:03:22.498Z,93.20
2022-08-17T06:06:07.464Z,93.10
2022-08-17T06:08:51.759Z,92.80
2022-08-17T06:11:27.964Z,93.10
2022-08-17T06:14:31.343Z,93.00
2022-08-17T06:17:03.129Z,92.80
2022-08-17T06:19:39.706Z,92.70
2022-08-17T06:22:12.758Z,92.90
2022-08-17T06:24:47.098Z,93.20
2022-08-17T06:27:24.350Z,93.70
2022-08-17T06:29:58.606Z,93.50
2022-08-17T06:32:26.254Z,93.20
2022-08-17T06:34:53.651Z,92.90
2022-08-17T06:37:52.775Z,92.60
2022-08-17T06:40:56.102Z,92.10
2022-08-17T06:43:48.117Z,92.10
2022-08-17T06:46:30.994Z,92.10
2022-08-17T06:49:14.313Z,91.80
2022-08-17T06:51:46.183Z,91.80
2022-08-17T06:54:22.196Z,91.80
2022-08-17T06:56:57.762Z,92.00
2022-08-17T06:59:36.285Z,91.90
2022-08-17T07:02:29.409Z,92.20
2022-08-17T07:05:13.414Z,92.40
2022-08-17T07:08:01.600Z,92.40
2022-08-17T07:10:48.362Z,91.40
2022-08-17T07:13:34.452Z,91.70
2022-08-17T07:16:14.989Z,92.20
2022-08-17T07:18:46.024Z,92.30
2022-08-17T07:21:30.587Z,92.50
2022-08-17T07:24:30.676Z,92.50
2022-08-17T07:27:09.606Z,92.00
2022-08-17T07:29:49.424Z,92.00
2022-08-17T07:32:23.482Z,91.80
2022-08-17T07:35:19.954Z,91.40
2022-08-17T07:37:55.742Z,91.20
2022-08-17T07:40:31.987Z,91.30
2022-08-17T07:43:23.380Z,90.70
2022-08-17T07:46:35.114Z,91.10
2022-08-17T07:49:24.089Z,91.60
2022-08-17T07:52:00.484Z,92.30
2022-08-17T07:54:48.287Z,91.20
2022-08-17T07:57:32.834Z,91.30
2022-08-17T08:00:30.804Z,91.30
2022-08-17T08:03:25.965Z,91.60
2022-08-17T08:05:57.655Z,92.20
2022-08-17T08:08:42.821Z,92.20
2022-08-17T08:11:15.410Z,93.10
2022-08-17T08:13:45.757Z,93.90
2022-08-17T08:16:25.202Z,93.90
2022-08-17T08:19:00.951Z,93.60
2022-08-17T08:21:43.030Z,94.60
2022-08-17T08:24:31.329Z,95.20
2022-08-17T08:27:09.374Z,94.80
2022-08-17T08:29:45.721Z,93.30
2022-08-17T08:32:24.553Z,93.30
2022-08-17T08:35:05.318Z,93.10
2022-08-17T08:37:47.343Z,92.10
2022-08-17T08:40:43.292Z,92.00
2022-08-17T08:43:23.216Z,91.20
2022-08-17T08:46:03.356Z,91.00
2022-08-17T08:49:39.276Z,91.00
2022-08-17T08:52:31.089Z,90.50
2022-08-17T08:55:10.194Z,90.10
2022-08-17T08:57:44.374Z,90.50
2022-08-17T09:00:15.580Z,90.90
2022-08-17T09:03:36.536Z,90.90
2022-08-17T09:06:38.733Z,91.50
2022-08-17T09:09:22.182Z,91.50
2022-08-17T09:12:03.810Z,91.00
2022-08-17T09:14:45.157Z,90.90
2022-08-17T09:17:19.545Z,90.60
2022-08-17T09:19:55.604Z,90.30
2022-08-17T09:22:32.800Z,90.30
2022-08-17T09:25:08.283Z,90.40
2022-08-17T09:27:54.709Z,90.80
2022-08-17T09:30:22.051Z,90.80
2022-08-17T09:32:56.659Z,90.80
2022-08-17T09:35:37.346Z,90.50
2022-08-17T09:38:19.889Z,90.50
2022-08-17T09:40:55.649Z,90.80
2022-08-17T09:43:34.259Z,90.20
2022-08-17T09:46:12.143Z,90.10
2022-08-17T09:48:45.664Z,89.30
2022-08-17T09:51:19.956Z,89.00
2022-08-17T09:53:47.298Z,89.20
2022-08-17T09:56:34.814Z,89.30
2022-08-17T09:59:34.213Z,88.20
2022-08-17T10:02:53.463Z,86.50
2022-08-17T10:05:24.185Z,86.70
2022-08-17T10:08:01.038Z,87.00
2022-08-17T10:10:36.172Z,87.40
2022-08-17T10:13:22.942Z,87.40
2022-08-17T10:15:58.957Z,88.20
2022-08-17T10:18:42.225Z,88.60
2022-08-17T10:21:31.585Z,87.70
2022-08-17T10:24:27.767Z,87.60
2022-08-17T10:26:57.776Z,88.10
2022-08-17T10:29:47.278Z,87.90
2022-08-17T10:32:32.841Z,87.70
2022-08-17T10:35:18.563Z,87.90
2022-08-17T10:38:06.656Z,87.80
2022-08-17T10:40:44.139Z,88.30
2022-08-17T10:43:35.777Z,88.60
2022-08-17T10:46:30.407Z,88.50
2022-08-17T10:49:33.024Z,88.90
2022-08-17T10:52:04.753Z,88.40
2022-08-17T10:54:45.722Z,88.50
2022-08-17T10:57:37.203Z,88.60
2022-08-17T11:00:39.479Z,88.40
2022-08-17T11:03:20.063Z,88.30
2022-08-17T11:06:00.297Z,87.80
2022-08-17T11:09:05.947Z,88.00
2022-08-17T11:12:09.186Z,87.60
2022-08-17T11:14:57.971Z,86.80
2022-08-17T11:17:50.263Z,86.90
2022-08-17T11:21:12.934Z,86.70
2022-08-17T11:24:13.208Z,86.40
2022-08-17T11:26:46.762Z,86.40
2022-08-17T11:29:24.630Z,86.50
2022-08-17T11:32:04.542Z,86.00
2022-08-17T11:34:33.174Z,85.80
2022-08-17T11:37:40.125Z,85.60
2022-08-17T11:40:25.496Z,85.50
2022-08-17T11:43:16.435Z,85.00
2022-08-17T11:46:51.646Z,83.70
2022-08-17T11:49:44.221Z,83.40
2022-08-17T11:52:38.350Z,84.20
2022-08-17T11:55:34.004Z,83.90
2022-08-17T11:58:02.854Z,83.30
2022-08-17T12:01:06.185Z,82.30
2022-08-17T12:03:55.807Z,82.80
2022-08-17T12:06:45.739Z,81.70
2022-08-17T12:09:19.908Z,82.00
2022-08-17T12:12:12.800Z,82.00
2022-08-17T12:15:09.514Z,82.00
2022-08-17T12:17:41.299Z,82.00
2022-08-17T12:20:27.913Z,81.50
2022-08-17T12:23:04.872Z,81.50
2022-08-17T12:25:37.610Z,81.80
2022-08-17T12:28:07.878Z,81.20
2022-08-17T12:30:38.500Z,81.40
2022-08-17T12:33:25.490Z,81.70
2022-08-17T12:36:05.069Z,81.90
2022-08-17T12:38:35.155Z,81.30
2022-08-17T12:41:28.235Z,82.10
2022-08-17T12:44:09.635Z,81.80
2022-08-17T12:46:53.400Z,81.70
2022-08-17T12:49:26.999Z,81.90
2022-08-17T12:52:11.873Z,81.80
2022-08-17T12:54:46.897Z,81.50
2022-08-17T12:57:20.574Z,82.10
2022-08-17T12:59:53.439Z,82.00
2022-08-17T13:02:45.321Z,82.00
2022-08-17T13:05:24.964Z,81.70
2022-08-17T13:07:53.319Z,81.50
2022-08-17T13:10:33.148Z,81.50
2022-08-17T13:13:05.265Z,81.90
2022-08-17T13:15:44.518Z,81.90
2022-08-17T13:18:42.664Z,81.60
2022-08-17T13:21:23.412Z,81.40
2022-08-17T13:23:59.953Z,80.90
2022-08-17T13:26:32.971Z,80.60
2022-08-17T13:29:03.018Z,81.00
2022-08-17T13:31:52.280Z,81.60
2022-08-17T13:35:12.622Z,81.30
2022-08-17T13:37:34.550Z,80.40
2022-08-17T13:40:30.898Z,80.20
2022-08-17T13:42:58.886Z,79.90
2022-08-17T13:45:50.831Z,80.00
2022-08-17T13:48:27.235Z,79.40
2022-08-17T13:51:30.011Z,79.10
2022-08-17T13:54:15.626Z,78.80
2022-08-17T13:57:00.317Z,79.20
2022-08-17T13:59:55.230Z,78.20
2022-08-17T14:02:25.883Z,78.50
2022-08-17T14:04:54.861Z,78.70
2022-08-17T14:07:33.868Z,77.80
2022-08-17T14:10:07.797Z,78.00
2022-08-17T14:12:41.117Z,78.20
2022-08-17T14:15:10.448Z,78.50
2022-08-17T14:17:39.108Z,78.10
2022-08-17T14:20:09.817Z,78.20
2022-08-17T14:22:42.828Z,78.40
2022-08-17T14:25:12.976Z,78.70
2022-08-17T14:27:52.452Z,78.10
2022-08-17T14:30:22.847Z,78.40
2022-08-17T14:32:51.912Z,78.90
2022-08-17T14:35:22.504Z,79.10
2022-08-17T14:37:50.481Z,78.60
2022-08-17T14:40:24.360Z,78.90
2022-08-17T14:42:58.605Z,78.80
2022-08-17T14:45:29.628Z,78.50
2022-08-17T14:48:04.089Z,77.70
2022-08-17T14:50:35.496Z,77.60
2022-08-17T14:53:04.505Z,77.60
2022-08-17T14:55:36.150Z,77.10
2022-08-17T14:58:04.557Z,77.00
2022-08-17T15:00:32.013Z,77.00
2022-08-17T15:03:01.191Z,76.30
2022-08-17T15:05:31.922Z,76.40
2022-08-17T15:08:03.796Z,76.40
2022-08-17T15:10:31.818Z,76.60
2022-08-17T15:13:00.509Z,77.00
2022-08-17T15:15:30.266Z,77.00
2022-08-17T15:17:59.917Z,76.90
2022-08-17T15:20:29.906Z,77.40
2022-08-17T15:22:58.845Z,77.20
2022-08-17T15:25:28.818Z,77.10
2022-08-17T15:27:56.619Z,77.00
2022-08-17T15:30:25.960Z,77.00
2022-08-17T15:32:56.568Z,76.80
2022-08-17T15:35:32.634Z,76.70
2022-08-17T15:38:08.094Z,76.50
2022-08-17T15:40:42.928Z,76.30
2022-08-17T15:43:13.637Z,75.90
2022-08-17T15:45:41.008Z,75.90
2022-08-17T15:48:15.541Z,76.00
2022-08-17T15:50:43.337Z,76.00
2022-08-17T15:53:17.777Z,76.10
2022-08-17T15:55:44.916Z,76.10
2022-08-17T15:58:12.058Z,76.30
2022-08-17T16:00:53.044Z,76.00
2022-08-17T16:04:01.263Z,75.40
2022-08-17T16:06:24.041Z,75.00
2022-08-17T16:08:51.479Z,75.50
2022-08-17T16:11:18.737Z,75.50
2022-08-17T16:13:47.365Z,75.20
2022-08-17T16:16:25.046Z,75.20
2022-08-17T16:18:59.281Z,75.00
2022-08-17T16:21:27.234Z,74.60
2022-08-17T16:23:57.864Z,74.00
2022-08-17T16:26:25.195Z,74.00
2022-08-17T16:28:56.463Z,74.10
2022-08-17T16:31:24.063Z,74.30
2022-08-17T16:34:15.503Z,74.10
2022-08-17T16:36:39.759Z,74.10
2022-08-17T16:39:07.072Z,73.50
2022-08-17T16:41:44.417Z,73.70
2022-08-17T16:44:15.472Z,73.50
2022-08-17T16:46:45.609Z,73.50
2022-08-17T16:49:35.404Z,73.60
2022-08-17T16:52:10.321Z,74.10
2022-08-17T16:54:39.409Z,73.40
2022-08-17T16:57:06.440Z,73.00
2022-08-17T16:59:39.603Z,73.00
2022-08-17T17:02:11.221Z,72.80
2022-08-17T17:04:47.510Z,72.70
2022-08-17T17:07:44.319Z,72.30
2022-08-17T17:10:16.633Z,72.50
2022-08-17T17:13:02.780Z,71.90
2022-08-17T17:15:54.812Z,71.70
2022-08-17T17:18:30.380Z,72.30
2022-08-17T17:20:59.006Z,71.70
2022-08-17T17:23:38.133Z,71.70
2022-08-17T17:26:27.320Z,71.60
2022-08-17T17:29:28.880Z,71.10
2022-08-17T17:32:23.245Z,70.90
2022-08-17T17:34:58.720Z,70.30
2022-08-17T17:37:34.965Z,69.90
2022-08-17T17:40:15.157Z,69.60
2022-08-17T17:42:44.629Z,69.50
2022-08-17T17:45:20.494Z,69.10
2022-08-17T17:47:48.355Z,69.10
2022-08-17T17:50:18.952Z,69.00
2022-08-17T17:52:59.557Z,69.30
2022-08-17T17:55:49.391Z,68.90
2022-08-17T17:58:36.052Z,68.90
2022-08-17T18:01:24.462Z,69.20
2022-08-17T18:04:20.539Z,69.10
2022-08-17T18:07:18.114Z,69.20
2022-08-17T18:10:19.590Z,69.40
2022-08-17T18:13:10.584Z,69.50
2022-08-17T18:15:50.958Z,69.90
2022-08-17T18:18:39.936Z,70.00
2022-08-17T18:21:16.898Z,70.00
2022-08-17T18:23:53.748Z,70.20
2022-08-17T18:26:42.066Z,70.20
2022-08-17T18:29:37.564Z,70.40
2022-08-17T18:32:33.074Z,70.50
2022-08-17T18:35:31.055Z,70.60
2022-08-17T18:38:21.969Z,70.70
2022-08-17T18:41:04.817Z,70.80
2022-08-17T18:43:44.113Z,71.00
2022-08-17T18:46:29.861Z,70.90
2022-08-17T18:49:00.934Z,71.20
2022-08-17T18:51:40.619Z,71.30
2022-08-17T18:54:17.880Z,71.60
2022-08-17T18:56:57.567Z,72.10
2022-08-17T18:59:40.154Z,72.40
2022-08-17T19:02:43.315Z,73.40
2022-08-17T19:05:15.734Z,73.60
2022-08-17T19:07:48.013Z,74.10
2022-08-17T19:10:21.765Z,74.40
2022-08-17T19:12:55.646Z,74.80
2022-08-17T19:15:33.717Z,74.90
2022-08-17T19:18:16.703Z,74.70
2022-08-17T19:20:50.970Z,75.50
2022-08-17T19:23:24.323Z,75.20
2022-08-17T19:25:58.406Z,75.40
2022-08-17T19:28:30.094Z,75.60
2022-08-17T19:31:03.121Z,76.50
2022-08-17T19:33:32.065Z,76.50
2022-08-17T19:36:06.811Z,77.70
2022-08-17T19:38:50.983Z,77.90
2022-08-17T19:41:26.732Z,78.20
2022-08-17T19:44:36.821Z,78.70
2022-08-17T19:47:19.607Z,79.00
2022-08-17T19:50:09.070Z,78.30
2022-08-17T19:52:58.182Z,78.30
2022-08-17T19:55:31.987Z,79.10
2022-08-17T19:58:13.010Z,78.90
2022-08-17T20:00:50.246Z,78.90
2022-08-17T20:03:26.307Z,78.80
2022-08-17T20:06:12.641Z,78.60
2022-08-17T20:08:49.072Z,78.50
2022-08-17T20:11:24.885Z,77.90
2022-08-17T20:14:00.610Z,77.90
2022-08-17T20:16:27.748Z,78.10
2022-08-17T20:19:02.210Z,78.20
2022-08-17T20:21:37.350Z,78.60
2022-08-17T20:24:16.288Z,79.70
2022-08-17T20:26:58.105Z,80.30
2022-08-17T20:29:40.033Z,79.60
2022-08-17T20:32:24.152Z,79.30
2022-08-17T20:35:06.906Z,79.10
2022-08-17T20:37:43.085Z,80.00
2022-08-17T20:40:25.874Z,80.50
2022-08-17T20:42:53.776Z,81.10
2022-08-17T20:45:50.307Z,81.50
2022-08-17T20:48:36.966Z,81.80
2022-08-17T20:51:30.570Z,82.20
2022-08-17T20:54:41.203Z,82.30
2022-08-17T20:57:14.193Z,82.60
2022-08-17T21:00:16.707Z,82.70
2022-08-17T21:02:46.534Z,82.80
2022-08-17T21:05:52.554Z,83.40
2022-08-17T21:08:30.842Z,83.70
2022-08-17T21:11:01.752Z,85.10
2022-08-17T21:14:07.441Z,84.80
2022-08-17T21:16:57.390Z,84.80
2022-08-17T21:20:07.741Z,84.80
2022-08-17T21:22:56.595Z,84.90
2022-08-17T21:25:48.126Z,84.80
2022-08-17T21:28:34.095Z,84.70
2022-08-17T21:31:08.441Z,84.80
2022-08-17T21:33:39.104Z,84.70
2022-08-17T21:36:26.074Z,84.80
2022-08-17T21:39:01.974Z,84.80
2022-08-17T21:41:34.174Z,84.90
2022-08-17T21:44:30.568Z,84.90
2022-08-17T21:47:18.446Z,84.90
2022-08-17T21:49:45.605Z,85.30
2022-08-17T21:52:15.726Z,85.20
2022-08-17T21:54:50.709Z,85.20
2022-08-17T21:57:22.387Z,85.30
2022-08-17T21:59:55.547Z,85.40
2022-08-17T22:02:26.603Z,85.40
2022-08-17T22:05:06.740Z,85.50
2022-08-17T22:07:38.310Z,85.60
2022-08-17T22:10:08.901Z,85.70
2022-08-17T22:12:36.189Z,85.70
2022-08-17T22:15:09.605Z,85.90
2022-08-17T22:17:44.904Z,86.00
2022-08-17T22:20:16.685Z,86.20
2022-08-17T22:23:30.862Z,86.30
2022-08-17T22:26:01.657Z,86.50
2022-08-17T22:28:45.650Z,86.40
2022-08-17T22:31:16.333Z,86.60
2022-08-17T22:33:49.437Z,86.80
2022-08-17T22:36:28.943Z,86.80
2022-08-17T22:38:58.483Z,86.90
2022-08-17T22:41:37.968Z,87.10
2022-08-17T22:44:20.471Z,87.20
2022-08-17T22:47:00.350Z,87.40
2022-08-17T22:49:33.505Z,88.20
2022-08-17T22:52:07.856Z,87.70
2022-08-17T22:54:53.478Z,88.00
2022-08-17T22:57:41.232Z,88.10
2022-08-17T23:00:32.793Z,88.20
2022-08-17T23:03:17.914Z,88.50
2022-08-17T23:05:49.550Z,88.90
2022-08-17T23:08:21.283Z,89.10
2022-08-17T23:10:49.120Z,89.10
2022-08-17T23:13:16.739Z,89.20
2022-08-17T23:15:51.457Z,89.30
2022-08-17T23:18:19.794Z,89.40
2022-08-17T23:20:46.854Z,89.60
2022-08-17T23:23:20.621Z,89.60
2022-08-17T23:25:54.479Z,89.60
2022-08-17T23:28:21.912Z,89.70
2022-08-17T23:30:48.965Z,89.90
2022-08-17T23:33:25.564Z,90.00
2022-08-17T23:35:58.825Z,90.00
2022-08-17T23:38:27.364Z,90.00
2022-08-17T23:41:00.090Z,89.90
2022-08-17T23:43:28.351Z,90.00
2022-08-17T23:45:58.466Z,89.90
2022-08-17T23:48:36.778Z,90.00
2022-08-17T23:51:10.248Z,90.00
2022-08-17T23:53:42.493Z,90.00
2022-08-17T23:56:11.436Z,90.10
2022-08-17T23:58:39.840Z,90.10
